Tiempo atmosférico en la estación meteorológica de Espolla, Girona (94 m.)



Fecha
DESCASC
Temp. máxima en grados centígrados (hora)
DESCASC
Temp. mínima en grados centígrados (hora)
DESCASC
Temp. media en grados centígrados
DESCASC
Racha de viento máxima en m/sg (hora)
DESCASC
Velocidad máxima media en intervalos de 10 minutos(hora)
DESCASC
Precipitaciones diarias en mm
DESCASC
Precipitaciones de 00:00 a 06:00 en mm
DESCASC
Precipitaciones de 06:00 a 12:00 en mm
DESCASC
Precipitaciones de 12:00 a 18:00 en mm
DESCASC
Precipitaciones de 18:00 a 24:00 en mm
DESCASC
02-04-2020 12.2 (18:10) 5.8 (23:50) 9 6.94 (18:10) 4.44 (18:10) 2 2 0 0 0
01-04-2020 10.9 (01:50) 8 (23:50) 9.4 7.78 (02:20) 3.33 (02:20) 5.6 1.4 0 0.6 3.6
31-03-2020 13.7 (13:20) 7.4 (00:00) 10.5 7.5 (14:20) 4.72 (14:00) 2 0 0 0 2
30-03-2020 13.8 (00:00) 6.9 (00:00) 10.4 8.33 (01:00) 5.28 (01:00) 0.8 0.2 0.6 0 0
29-03-2020 20.3 (16:10) 12.8 (00:00) 16.5 16.11 (03:20) 8.33 (13:50) 0 0 0 0 0
28-03-2020 17.7 (15:30) 8.4 (00:00) 13.1 13.61 (22:50) 5.83 (23:50) 0 0 0 0 0
27-03-2020 15.5 (14:40) 2.4 (00:00) 9 9.72 (10:50) 5 (03:30) 0 0 0 0 0
26-03-2020 10.7 (17:30) 2.2 (00:00) 6.4 6.67 (05:50) 4.17 (05:50) 17.2 4.8 7.4 5 0
25-03-2020 12.1 (14:30) 3.9 (00:00) 8 7.22 (15:00) 4.44 (14:50) 0 0 0 0 0
24-03-2020 13 (12:50) 7.8 (00:00) 10.4 8.61 (13:30) 5.28 (13:50) 0 0 0 0 0
23-03-2020 14 (12:50) 10.2 (00:00) 12.1 9.17 (15:00) 5 (15:20) 9.6 0 9.6 0 0
22-03-2020 17.1 (14:40) 9.5 (04:50) 13.3 6.39 (15:00) 4.17 (13:30) 0.4 0 0 0 0.4
21-03-2020 16.5 (15:30) 5.6 (00:00) 11 7.22 (14:20) 4.72 (14:10) 0.4 0 0 0 0.4
20-03-2020 17.5 (14:50) 4.7 (00:00) 11.1 6.94 (16:50) 4.72 (16:30) 0 0 0 0 0
19-03-2020 17.8 (13:00) 6.1 (00:00) 11.9 5.83 (14:30) 3.89 (15:40) 0 0 0 0 0
18-03-2020 17.8 (14:50) 8.3 (00:00) 13 5.28 (00:20) 3.61 (00:20) 0 0 0 0 0
17-03-2020 15.6 (14:30) 10 (00:00) 12.8 6.11 (20:20) 3.89 (19:20) 0 0 0 0 0
16-03-2020 14.2 (12:30) 11.1 (00:00) 12.7 9.44 (11:40) 5.56 (11:40) 15.4 0 0 14.4 1
15-03-2020 14.8 (13:50) 7 (00:00) 10.9 12.22 (14:10) 7.5 (12:50) 0 0 0 0 0
14-03-2020 19.5 (13:30) 7.4 (00:00) 13.5 7.22 (13:10) 4.72 (16:10) 0 0 0 0 0
13-03-2020 20.6 (13:50) 10 (03:00) 15.3 8.89 (17:20) 4.72 (17:20) 0 0 0 0 0
12-03-2020 20.7 (12:10) 10 (00:00) 15.4 5.83 (13:20) 3.61 (13:30) 0 0 0 0 0
11-03-2020 21.9 (15:20) 6.6 (00:00) 14.2 5.56 (15:30) 3.61 (15:40) 0 0 0 0 0
10-03-2020 16.3 (15:40) 7.5 (00:00) 11.9 13.61 (01:30) 5.28 (00:20) 0 0 0 0 0
09-03-2020 14.7 (15:00) 8.6 (00:00) 11.7 25 (20:10) 12.5 (20:10) 0 0 0 0 0
08-03-2020 16.6 (14:20) 4.2 (00:00) 10.4 13.33 (00:50) 6.39 (00:50) 0 0 0 0 0
07-03-2020 14.1 (15:30) 8 (00:00) 11.1 30.83 (07:00) 16.67 (07:00) 0 0 0 0 0
06-03-2020 -- (--) -- (--) -- -- (--) -- (--) -- 0 -- -- --
05-03-2020 20.6 (13:50) 8.1 (00:00) 14.4 19.17 (16:50) 10 (16:20) 4.6 0 0 3.2 1.4

Gráficas

Temp. máximas Temp. mínimas Temp. medias Precipitaciones Rachas de viento máximas Velocidades máximas media en intervalos de 10 minutos

Datos horarios

Fecha y hora oficial Temperatura (ºC) Velocidad del viento (km/h) Dirección del viento Racha (km/h) Dirección de racha Precipitación (mm) Presión (hPa) Tendencia (hPa) Humedad (%)
2020-04-03 23:00:00 12.7 14 Noroeste 26 Noroeste 0 -- -- 47
2020-04-03 22:00:00 8.8 3 Sur 10 Norte 0 -- -- 68
2020-04-03 21:00:00 11.6 6 Norte 13 Norte 0 -- -- 56
2020-04-03 20:00:00 14.6 5 Nordeste 25 Norte 0 -- -- 44
2020-04-03 19:00:00 17.3 14 Norte 27 Norte 0 -- -- 35
2020-04-03 18:00:00 18.4 13 Norte 38 Norte 0 -- -- 34
2020-04-03 17:00:00 18.3 21 Norte 40 Nordeste 0 -- -- 35
2020-04-03 16:00:00 18.2 26 Nordeste 45 Nordeste 0 -- -- 35
2020-04-03 15:00:00 18.1 20 Norte 39 Norte 0 -- -- 39
2020-04-03 14:00:00 17.2 25 Norte 47 Norte 0 -- -- 42
2020-04-03 13:00:00 16.5 23 Norte 45 Nordeste 0 -- -- 42
2020-04-03 12:00:00 15.5 10 Norte 42 Noroeste 0 -- -- 44
2020-04-03 11:00:00 14.5 21 Norte 46 Nordeste 0 -- -- 46
2020-04-03 10:00:00 13.8 19 Nordeste 36 Nordeste 0 -- -- 51
2020-04-03 09:00:00 12.6 16 Nordeste 40 Norte 0 -- -- 53
2020-04-03 08:00:00 11.8 24 Norte 41 Norte 0 -- -- 51
2020-04-03 07:00:00 11.7 11 Nordeste 40 Norte 0 -- -- 55
2020-04-03 06:00:00 12.1 24 Norte 45 Norte 0 -- -- 49
2020-04-03 05:00:00 12.7 23 Norte 41 Norte 0 -- -- 57
2020-04-03 04:00:00 13.1 22 Norte 46 Norte 0 -- -- 56
2020-04-03 03:00:00 13.4 22 Norte 50 Noroeste 0 -- -- 56
2020-04-03 02:00:00 13.2 22 Norte 42 Norte 0 -- -- 55
2020-04-03 01:00:00 6.4 5 Norte 15 Norte 0 -- -- 90
2020-04-03 00:00:00 5.9 3 Norte 11 Norte 0 -- -- 92
2020-04-02 23:00:00 6.3 3 Este 8 Nordeste 0 -- -- 91
2020-04-02 22:00:00 7.3 2 Norte 7 Este 0 -- -- 89
2020-04-02 21:00:00 8.7 5 Nordeste 12 Nordeste 0 -- -- 82
2020-04-02 20:00:00 10.8 5 Nordeste 16 Este 0 -- -- 76
2020-04-02 19:00:00 11.9 13 Este 25 Nordeste 0 -- -- 71
2020-04-02 18:00:00 12.1 14 Este 25 Este 0 -- -- 70
2020-04-02 17:00:00 11.6 12 Nordeste 21 Nordeste 0 -- -- 72
2020-04-02 16:00:00 11.2 12 Nordeste 20 Nordeste 0 -- -- 74
2020-04-02 15:00:00 10.8 5 Nordeste 17 Nordeste 0 -- -- 78
2020-04-02 14:00:00 11.4 12 Nordeste 24 Nordeste 0 -- -- 69
2020-04-02 13:00:00 11.2 7 Nordeste 20 Nordeste 0 -- -- 73
2020-04-02 12:00:00 10.8 8 Nordeste 14 Este 0 -- -- 74
2020-04-02 11:00:00 10.5 9 Nordeste 17 Nordeste 0 -- -- 73
2020-04-02 10:00:00 10.2 4 Nordeste 9 Nordeste 0 -- -- 78
2020-04-02 09:00:00 9 6 Norte 11 Norte 0 -- -- 87
2020-04-02 08:00:00 8.4 6 Norte 9 Norte 0 -- -- 90
2020-04-02 07:00:00 8.5 6 Norte 11 Nordeste 0 -- -- 90
2020-04-02 06:00:00 8.4 6 Nordeste 13 Nordeste 0 -- -- 92
2020-04-02 05:00:00 8.2 8 Norte 11 Norte 0.2 -- -- 92
2020-04-02 04:00:00 8.1 8 Norte 12 Norte 0 -- -- 90
2020-04-02 03:00:00 8.5 7 Norte 15 Nordeste 0 -- -- 94
2020-04-02 02:00:00 8.2 3 Norte 7 Norte 0.6 -- -- 94
2020-04-02 01:00:00 8 6 Nordeste 11 Nordeste 1.2 -- -- 93
2020-04-02 00:00:00 8 4 Norte 9 Norte 0.6 -- -- 94
2020-04-01 23:00:00 8.2 4 Norte 8 Norte 1 -- -- 94
2020-04-01 22:00:00 8.5 5 Norte 8 Nordeste 0.2 -- -- 93
2020-04-01 21:00:00 8.8 5 Nordeste 9 Este 0.6 -- -- 92
2020-04-01 20:00:00 9.2 0 Calma 8 Este 1 -- -- 90
2020-04-01 19:00:00 9.5 4 Este 11 Nordeste 0.2 -- -- 86
2020-04-01 18:00:00 9.3 8 Nordeste 14 Nordeste 0.2 -- -- 86
2020-04-01 17:00:00 9.4 9 Este 15 Nordeste 0 -- -- 85
2020-04-01 16:00:00 9.3 7 Nordeste 15 Este 0 -- -- 89
2020-04-01 15:00:00 9.3 3 Nordeste 6 Norte 0.4 -- -- 91
2020-04-01 14:00:00 9.5 6 Noroeste 13 Oeste 0 -- -- 91
2020-04-01 13:00:00 9.9 4 Nordeste 12 Nordeste 0 -- -- 84
2020-04-01 12:00:00 10 4 Este 27 Este 0 -- -- 82
2020-04-01 11:00:00 10.8 11 Este 23 Este 0 -- -- 74
2020-04-01 10:00:00 10.6 7 Este 12 Sudeste 0 -- -- 78
2020-04-01 09:00:00 10.4 2 Este 17 Este 0 -- -- 82
2020-04-01 08:00:00 10.4 5 Sudeste 15 Sudeste 0 -- -- 80
2020-04-01 07:00:00 10.4 4 Sudeste 18 Sudeste 0 -- -- 86
2020-04-01 06:00:00 10.4 8 Este 20 Este 0.2 -- -- 86
2020-04-01 05:00:00 10.8 11 Este 23 Sudeste 0 -- -- 87
2020-04-01 04:00:00 10.8 9 Sudeste 21 Este 0 -- -- 89
2020-04-01 03:00:00 10.8 6 Este 28 Este 0 -- -- 90
2020-04-01 02:00:00 10.9 8 Sudeste 15 Este 0 -- -- 92
2020-04-01 01:00:00 10.5 6 Este 10 Este 1.2 -- -- 93
2020-04-01 00:00:00 10.2 5 Norte 10 Este 2 -- -- 91
2020-03-31 23:00:00 11.1 7 Norte 13 Noroeste 0 -- -- 76
2020-03-31 22:00:00 10.8 0 Calma 5 Norte 0 -- -- 81
2020-03-31 21:00:00 10.8 3 Nordeste 10 Nordeste 0 -- -- 75
2020-03-31 20:00:00 11.1 4 Norte 5 Norte 0 -- -- 78
2020-03-31 19:00:00 11.8 0 Calma 8 Sudoeste 0 -- -- 72
2020-03-31 18:00:00 12.4 6 Sur 15 Sur 0 -- -- 68
2020-03-31 17:00:00 12.4 7 Nordeste 18 Norte 0 -- -- 64
2020-03-31 16:00:00 10.7 13 Nordeste 24 Nordeste 0 -- -- 72
2020-03-31 15:00:00 10.9 14 Nordeste 27 Nordeste 0 -- -- 70
2020-03-31 14:00:00 12.1 17 Nordeste 26 Nordeste 0 -- -- 64
2020-03-31 13:00:00 13.1 7 Norte 24 Norte 0 -- -- 59
2020-03-31 12:00:00 13 13 Nordeste 21 Nordeste 0 -- -- 59
2020-03-31 11:00:00 12.1 11 Nordeste 17 Norte 0 -- -- 57
2020-03-31 10:00:00 11 3 Este 10 Nordeste 0 -- -- 61
2020-03-31 09:00:00 8.9 5 Nordeste 11 Nordeste 0 -- -- 66
2020-03-31 08:00:00 8 3 Nordeste 10 Nordeste 0 -- -- 71
2020-03-31 07:00:00 8 4 Nordeste 11 Nordeste 0 -- -- 72
2020-03-31 06:00:00 8.5 7 Nordeste 13 Este 0 -- -- 66
2020-03-31 05:00:00 8.6 6 Nordeste 14 Nordeste 0 -- -- 66
2020-03-31 04:00:00 8.3 4 Norte 11 Nordeste 0 -- -- 69
2020-03-31 03:00:00 7.6 0 Calma 7 Nordeste 0 -- -- 78
2020-03-31 02:00:00 8.5 6 Norte 15 Nordeste 0 -- -- 64
2020-03-31 01:00:00 8.2 14 Nordeste 18 Nordeste 0 -- -- 65
2020-03-31 00:00:00 7.9 9 Nordeste 15 Nordeste 0 -- -- 68
2020-03-30 23:00:00 7.2 9 Nordeste 13 Norte 0 -- -- 72
2020-03-30 22:00:00 7 4 Norte 14 Nordeste 0 -- -- 72
2020-03-30 21:00:00 7.7 2 Norte 12 Norte 0 -- -- 71
2020-03-30 20:00:00 9.2 4 Este 13 Sudeste 0 -- -- 72
2020-03-30 19:00:00 10.7 6 Sudeste 10 Sudeste 0 -- -- 63
2020-03-30 18:00:00 10.9 2 Sudoeste 8 Sudoeste 0 -- -- 56
2020-03-30 17:00:00 10.5 5 Oeste 10 Sur 0 -- -- 60
2020-03-30 16:00:00 10.3 3 Norte 8 Sudeste 0 -- -- 58
2020-03-30 15:00:00 9.3 4 Sudeste 9 Sur 0 -- -- 65
2020-03-30 14:00:00 8.8 4 Sur 8 Sur 0 -- -- 69
2020-03-30 13:00:00 8.2 4 Sudoeste 10 Sudeste 0 -- -- 74
2020-03-30 12:00:00 7.9 5 Sudoeste 9 Sudoeste 0 -- -- 80
2020-03-30 11:00:00 7.5 3 Sudoeste 6 Sudoeste 0.4 -- -- 86
2020-03-30 10:00:00 7.4 5 Sudeste 10 Sur 0 -- -- 87
2020-03-30 09:00:00 7.6 5 Sudoeste 9 Sudoeste 0.2 -- -- 87
2020-03-30 08:00:00 8.2 2 Sur 9 Sudoeste 0 -- -- 83
2020-03-30 07:00:00 8.3 3 Este 11 Este 0 -- -- 78
2020-03-30 06:00:00 8.5 5 Noroeste 25 Nordeste 0 -- -- 78
2020-03-30 05:00:00 8.6 12 Nordeste 23 Nordeste 0 -- -- 81
2020-03-30 04:00:00 9 13 Norte 22 Norte 0.2 -- -- 84
2020-03-30 03:00:00 10.3 12 Nordeste 23 Nordeste 0 -- -- 75
2020-03-30 02:00:00 11.2 15 Nordeste 27 Nordeste 0 -- -- 70
2020-03-30 01:00:00 12.4 19 Nordeste 30 Nordeste 0 -- -- 67
2020-03-30 00:00:00 13.8 10 Este 36 Norte 0 -- -- 58
2020-03-29 23:00:00 14.8 20 Norte 42 Norte 0 -- -- 52
2020-03-29 22:00:00 14.9 23 Norte 52 Norte 0 -- -- 52
2020-03-29 21:00:00 15.2 26 Norte 51 Noroeste 0 -- -- 50
2020-03-29 20:00:00 15.9 16 Norte 39 Norte 0 -- -- 47
2020-03-29 19:00:00 17 24 Norte 47 Nordeste 0 -- -- 41
2020-03-29 18:00:00 19.2 21 Norte 45 Norte 0 -- -- 38
2020-03-29 17:00:00 19.9 22 Norte 47 Noroeste 0 -- -- 35
2020-03-29 16:00:00 20.1 22 Norte 45 Norte 0 -- -- 36
2020-03-29 15:00:00 19 23 Norte 54 Norte 0 -- -- 36
2020-03-29 14:00:00 19.8 24 Norte 48 Noroeste 0 -- -- 33
2020-03-29 13:00:00 19.5 18 Norte 44 Norte 0 -- -- 36
2020-03-29 12:00:00 18.6 27 Norte 44 Norte 0 -- -- 39
2020-03-29 11:00:00 17.6 23 Norte 46 Noroeste 0 -- -- 40
2020-03-29 10:00:00 15.3 12 Oeste 34 Oeste 0 -- -- 45
2020-03-29 09:00:00 14.3 9 Norte 35 Oeste 0 -- -- 45
2020-03-29 08:00:00 14.4 14 Noroeste 42 Noroeste 0 -- -- 45
2020-03-29 07:00:00 14.8 18 Noroeste 44 Noroeste 0 -- -- 43
2020-03-29 06:00:00 14.6 16 Nordeste 49 Norte 0 -- -- 44
2020-03-29 05:00:00 15 27 Norte 50 Norte 0 -- -- 43
2020-03-29 03:00:00 15.7 29 Norte 57 Norte 0 -- -- 42
2020-03-29 01:00:00 16.2 22 Norte 48 Noroeste 0 -- -- 41
2020-03-29 00:00:00 16 18 Norte 47 Norte 0 -- -- 42
2020-03-28 23:00:00 15.7 18 Norte 49 Norte 0 -- -- 44
2020-03-28 22:00:00 13.6 9 Sudoeste 23 Nordeste 0 -- -- 52
2020-03-28 21:00:00 10 3 Norte 13 Norte 0 -- -- 79
2020-03-28 20:00:00 11.1 8 Nordeste 12 Nordeste 0 -- -- 75
2020-03-28 19:00:00 14.5 0 Calma 11 Sudeste 0 -- -- 64
2020-03-28 18:00:00 16.6 6 Sur 14 Sudoeste 0 -- -- 54
2020-03-28 17:00:00 17.6 8 Sudoeste 14 Sur 0 -- -- 49
2020-03-28 16:00:00 16.7 9 Sur 20 Sur 0 -- -- 54
2020-03-28 15:00:00 17.4 12 Sur 17 Sur 0 -- -- 50
2020-03-28 14:00:00 16.9 12 Sur 18 Sudoeste 0 -- -- 51
2020-03-28 13:00:00 16.4 9 Sur 15 Sudeste 0 -- -- 47
2020-03-28 12:00:00 16.6 11 Sur 20 Sur 0 -- -- 47
2020-03-28 11:00:00 16.8 8 Sudoeste 20 Oeste 0 -- -- 43
2020-03-28 10:00:00 16 10 Nordeste 25 Este 0 -- -- 42
2020-03-28 09:00:00 13.5 13 Este 30 Nordeste 0 -- -- 48
2020-03-28 08:00:00 12.7 18 Nordeste 28 Nordeste 0 -- -- 49
2020-03-28 07:00:00 12.2 14 Nordeste 25 Nordeste 0 -- -- 50
2020-03-28 06:00:00 11.6 9 Nordeste 21 Nordeste 0 -- -- 53
2020-03-28 05:00:00 9 0 Calma 6 Este 0 -- -- 76
2020-03-28 04:00:00 8.4 0 Calma 6 Norte 0 -- -- 85
2020-03-28 03:00:00 8.7 0 Calma 11 Sudoeste 0 -- -- 83
2020-03-28 02:00:00 9.5 3 Sudoeste 10 Norte 0 -- -- 72
2020-03-28 01:00:00 10 2 Nordeste 11 Nordeste 0 -- -- 69
2020-03-28 00:00:00 9.5 3 Este 11 Este 0 -- -- 74
2020-03-27 23:00:00 9.8 8 Sur 12 Norte 0 -- -- 72
2020-03-27 22:00:00 9.5 3 Norte 12 Norte 0 -- -- 75
2020-03-27 21:00:00 10 4 Norte 10 Norte 0 -- -- 72
2020-03-27 20:00:00 11 4 Nordeste 19 Sudeste 0 -- -- 63
2020-03-27 19:00:00 11.9 0 Calma 9 Oeste 0 -- -- 66
2020-03-27 18:00:00 12.9 5 Oeste 11 Sudoeste 0 -- -- 57
2020-03-27 17:00:00 14.6 6 Nordeste 16 Nordeste 0 -- -- 48
2020-03-27 16:00:00 15.2 10 Nordeste 19 Norte 0 -- -- 41
2020-03-27 15:00:00 15.4 10 Este 18 Nordeste 0 -- -- 41
2020-03-27 14:00:00 14.5 10 Norte 22 Norte 0 -- -- 41
2020-03-27 13:00:00 14.5 11 Norte 24 Nordeste 0 -- -- 44
2020-03-27 12:00:00 13.5 17 Noroeste 30 Noroeste 0 -- -- 45
2020-03-27 11:00:00 12.6 18 Noroeste 35 Noroeste 0 -- -- 46
2020-03-27 10:00:00 12 6 Norte 28 Nordeste 0 -- -- 44
2020-03-27 09:00:00 10.6 10 Nordeste 20 Nordeste 0 -- -- 50
2020-03-27 08:00:00 9.4 8 Norte 32 Noroeste 0 -- -- 54
2020-03-27 07:00:00 8.8 14 Norte 27 Norte 0 -- -- 53
2020-03-27 06:00:00 8.5 9 Norte 28 Norte 0 -- -- 52
2020-03-27 05:00:00 9.1 15 Norte 32 Norte 0 -- -- 47
2020-03-27 04:00:00 8.8 14 Norte 29 Norte 0 -- -- 49
2020-03-27 03:00:00 8.6 10 Norte 26 Norte 0 -- -- 51
2020-03-27 02:00:00 8.3 13 Norte 28 Norte 0 -- -- 54
2020-03-27 01:00:00 7.3 15 Nordeste 27 Nordeste 0 -- -- 64
2020-03-27 00:00:00 2.4 6 Norte 10 Noroeste 0 -- -- 89
2020-03-26 23:00:00 2.8 3 Noroeste 14 Norte 0 -- -- 88
2020-03-26 22:00:00 3.1 4 Nordeste 14 Norte 0 -- -- 89
2020-03-26 21:00:00 3.9 5 Norte 12 Norte 0 -- -- 86
2020-03-26 20:00:00 5 5 Norte 14 Nordeste 0 -- -- 81
2020-03-26 19:00:00 8 4 Norte 11 Sudoeste 0 -- -- 74
2020-03-26 18:00:00 10 8 Nordeste 15 Este 0 -- -- 57
2020-03-26 17:00:00 10.2 6 Sudeste 18 Nordeste 0 -- -- 60
2020-03-26 16:00:00 9.4 12 Nordeste 21 Norte 0 -- -- 65
2020-03-26 15:00:00 7.4 9 Nordeste 18 Norte 0 -- -- 88
2020-03-26 14:00:00 5.7 12 Norte 18 Norte 2.6 -- -- 90
2020-03-26 13:00:00 6.8 10 Norte 18 Nordeste 2.4 -- -- 90
2020-03-26 12:00:00 5 7 Nordeste 24 Norte 2.4 -- -- 91
2020-03-26 11:00:00 5.9 7 Norte 19 Norte 1.2 -- -- 91
2020-03-26 10:00:00 5.5 10 Nordeste 19 Norte 1.4 -- -- 91
2020-03-26 09:00:00 5.6 5 Norte 10 Nordeste 1.2 -- -- 92
2020-03-26 08:00:00 5.5 4 Norte 13 Este 1 -- -- 92
2020-03-26 07:00:00 5.1 10 Nordeste 18 Nordeste 0.2 -- -- 90
2020-03-26 06:00:00 5.3 13 Nordeste 24 Nordeste 4.4 -- -- 91
2020-03-26 05:00:00 6 6 Este 15 Este 0.4 -- -- 89
2020-03-26 04:00:00 5.9 0 Calma 11 Este 0 -- -- 89
2020-03-26 03:00:00 6 3 Oeste 11 Este 0 -- -- 87
2020-03-26 02:00:00 6 6 Este 10 Este 0 -- -- 88
2020-03-26 01:00:00 6.2 6 Este 11 Este 0 -- -- 83
2020-03-26 00:00:00 6.3 9 Nordeste 13 Nordeste 0 -- -- 81
2020-03-25 23:00:00 6.1 9 Nordeste 12 Este 0 -- -- 81
2020-03-25 22:00:00 5.4 5 Este 10 Este 0 -- -- 84
2020-03-25 21:00:00 6.6 2 Este 10 Este 0 -- -- 78
2020-03-25 20:00:00 7.1 2 Este 13 Sudoeste 0 -- -- 74
2020-03-25 19:00:00 9.5 9 Sudoeste 15 Sudoeste 0 -- -- 63
2020-03-25 18:00:00 10 9 Sur 19 Sur 0 -- -- 61
2020-03-25 17:00:00 10.2 10 Sur 20 Sur 0 -- -- 58
2020-03-25 16:00:00 10.5 15 Sur 25 Sur 0 -- -- 60
2020-03-25 15:00:00 11.7 16 Sur 26 Sur 0 -- -- 53
2020-03-25 14:00:00 11.6 14 Sur 22 Sur 0 -- -- 53
2020-03-25 13:00:00 10 11 Sur 21 Sudeste 0 -- -- 64
2020-03-25 12:00:00 10 13 Este 22 Sudeste 0 -- -- 68
2020-03-25 11:00:00 10.8 4 Sudoeste 14 Sudoeste 0 -- -- 49
2020-03-25 10:00:00 11.6 4 Oeste 8 Sudoeste 0 -- -- 46
2020-03-25 09:00:00 10.4 0 Calma 10 Nordeste 0 -- -- 54
2020-03-25 08:00:00 6.1 6 Nordeste 13 Nordeste 0 -- -- 71
2020-03-25 07:00:00 4.1 6 Nordeste 15 Nordeste 0 -- -- 75
2020-03-25 06:00:00 4.6 3 Norte 10 Norte 0 -- -- 76
2020-03-25 05:00:00 5.5 4 Nordeste 10 Norte 0 -- -- 76
2020-03-25 04:00:00 6.5 8 Nordeste 12 Nordeste 0 -- -- 72
2020-03-25 03:00:00 7.1 7 Norte 17 Este 0 -- -- 70
2020-03-25 02:00:00 7 6 Norte 9 Nordeste 0 -- -- 74
2020-03-25 01:00:00 7.3 3 Norte 10 Este 0 -- -- 78
2020-03-25 00:00:00 7.8 4 Este 6 Nordeste 0 -- -- 70
2020-03-24 23:00:00 8.3 4 Este 8 Nordeste 0 -- -- 69
2020-03-24 22:00:00 8.1 4 Nordeste 7 Nordeste 0 -- -- 74
2020-03-24 21:00:00 8.6 4 Este 8 Este 0 -- -- 68
2020-03-24 20:00:00 8.6 4 Este 10 Este 0 -- -- 72
2020-03-24 19:00:00 9.3 4 Este 11 Este 0 -- -- 65
2020-03-24 18:00:00 9.6 9 Este 21 Sudeste 0 -- -- 62
2020-03-24 17:00:00 10.1 12 Este 29 Este 0 -- -- 63
2020-03-24 16:00:00 11 13 Este 30 Sudeste 0 -- -- 63
2020-03-24 15:00:00 11.3 16 Este 30 Este 0 -- -- 63
2020-03-24 14:00:00 11.6 17 Sudeste 31 Sudeste 0 -- -- 64
2020-03-24 13:00:00 12.9 18 Este 28 Este 0 -- -- 60
2020-03-24 12:00:00 12.2 14 Este 25 Este 0 -- -- 62
2020-03-24 11:00:00 12 11 Este 19 Este 0 -- -- 63
2020-03-24 10:00:00 11.5 11 Sudeste 21 Este 0 -- -- 67
2020-03-24 09:00:00 10.6 8 Este 12 Este 0 -- -- 70
2020-03-24 08:00:00 9.6 0 Calma 5 Norte 0 -- -- 85
2020-03-24 07:00:00 9.5 3 Norte 8 Nordeste 0 -- -- 88
2020-03-24 06:00:00 9.6 3 Nordeste 8 Este 0 -- -- 87
2020-03-24 05:00:00 9.6 4 Nordeste 6 Nordeste 0 -- -- 88
2020-03-24 04:00:00 9.8 3 Nordeste 6 Nordeste 0 -- -- 87
2020-03-24 03:00:00 9.9 4 Nordeste 8 Nordeste 0 -- -- 85
2020-03-24 02:00:00 10.3 4 Este 10 Nordeste 0 -- -- 83
2020-03-24 01:00:00 10.1 5 Este 8 Sudeste 0 -- -- 87
2020-03-24 00:00:00 10.4 5 Nordeste 8 Nordeste 0 -- -- 89
2020-03-23 23:00:00 10.7 3 Nordeste 8 Nordeste 0 -- -- 88
2020-03-23 22:00:00 10.7 0 Calma 3 Noroeste 0 -- -- 88
2020-03-23 21:00:00 11.1 0 Calma 6 Nordeste 0 -- -- 83
2020-03-23 20:00:00 11.3 4 Nordeste 10 Sudeste 0 -- -- 80
2020-03-23 19:00:00 11.6 4 Nordeste 18 Este 0 -- -- 78
2020-03-23 18:00:00 11.8 9 Este 29 Este 0 -- -- 77
2020-03-23 17:00:00 12.1 14 Este 30 Este 0 -- -- 77
2020-03-23 16:00:00 12.7 15 Este 32 Este 0 -- -- 76
2020-03-23 15:00:00 13.9 17 Este 33 Este 0 -- -- 74
2020-03-23 14:00:00 13.5 12 Este 27 Nordeste 0 -- -- 77
2020-03-23 13:00:00 13.9 15 Este 26 Este 0 -- -- 74
2020-03-23 12:00:00 13 10 Este 22 Este 1.2 -- -- 86
2020-03-23 11:00:00 12.1 3 Noroeste 13 Este 7.2 -- -- 92
2020-03-23 10:00:00 13.1 10 Sudeste 19 Sudeste 1.2 -- -- 83
2020-03-23 09:00:00 13.3 4 Nordeste 13 Nordeste 0 -- -- 82
2020-03-23 08:00:00 12.4 6 Norte 14 Norte 0 -- -- 87
2020-03-23 07:00:00 12.2 8 Nordeste 18 Nordeste 0 -- -- 85
2020-03-23 06:00:00 11.9 10 Nordeste 16 Nordeste 0 -- -- 89
2020-03-23 05:00:00 11.6 8 Nordeste 13 Nordeste 0 -- -- 89
2020-03-23 04:00:00 10.7 8 Nordeste 13 Nordeste 0 -- -- 89
2020-03-23 03:00:00 10.3 4 Norte 9 Nordeste 0 -- -- 89
2020-03-23 02:00:00 10.8 6 Nordeste 12 Nordeste 0 -- -- 89
2020-03-23 01:00:00 11.1 0 Calma 7 Norte 0 -- -- 92
2020-03-23 00:00:00 11.5 4 Nordeste 9 Nordeste 0 -- -- 93
2020-03-22 23:00:00 11.6 5 Nordeste 9 Nordeste 0.4 -- -- 92
2020-03-22 22:00:00 11.9 3 Nordeste 5 Nordeste 0 -- -- 90
2020-03-22 21:00:00 12.2 0 Calma 5 Norte 0 -- -- 88
2020-03-22 20:00:00 12.6 3 Oeste 9 Sudoeste 0 -- -- 85
2020-03-22 19:00:00 13.3 6 Sudoeste 15 Sudoeste 0 -- -- 79
2020-03-22 18:00:00 15.2 6 Sur 14 Sur 0 -- -- 63
2020-03-22 17:00:00 16.1 9 Sudeste 17 Este 0 -- -- 58
2020-03-22 16:00:00 16.8 12 Sudeste 23 Sudeste 0 -- -- 55
2020-03-22 15:00:00 17 13 Sudeste 23 Este 0 -- -- 53
2020-03-22 14:00:00 16.1 13 Sudeste 22 Sudeste 0 -- -- 55
2020-03-22 13:00:00 16 12 Sudeste 20 Sur 0 -- -- 61
2020-03-22 12:00:00 15.5 6 Sudeste 14 Este 0 -- -- 62
2020-03-22 11:00:00 15.6 7 Sudeste 13 Sudeste 0 -- -- 64
2020-03-22 10:00:00 14.2 0 Calma 8 Oeste 0 -- -- 78
2020-03-22 09:00:00 13.2 0 Calma 12 Nordeste 0 -- -- 87
2020-03-22 08:00:00 10.3 8 Nordeste 14 Nordeste 0 -- -- 94
2020-03-22 07:00:00 10 2 Norte 12 Nordeste 0 -- -- 95
2020-03-22 06:00:00 9.7 3 Nordeste 8 Nordeste 0 -- -- 95
2020-03-22 05:00:00 9.5 0 Calma 9 Nordeste 0 -- -- 95
2020-03-22 04:00:00 10.5 5 Nordeste 8 Nordeste 0 -- -- 95
2020-03-22 03:00:00 10.8 0 Calma 8 Nordeste 0 -- -- 95
2020-03-22 02:00:00 10.8 4 Norte 6 Norte 0 -- -- 94
2020-03-22 01:00:00 11.9 3 Norte 5 Este 0 -- -- 94
2020-03-22 00:00:00 12.2 2 Nordeste 8 Sur 0.2 -- -- 94
2020-03-21 23:00:00 12.3 0 Calma 5 Sur 0.2 -- -- 93
2020-03-21 22:00:00 12.3 0 Calma 3 Norte 0 -- -- 91
2020-03-21 21:00:00 12.3 0 Calma 2 Norte 0 -- -- 89
2020-03-21 20:00:00 12.5 2 Norte 6 Sudeste 0 -- -- 86
2020-03-21 19:00:00 13.1 5 Sudeste 9 Sudeste 0 -- -- 83
2020-03-21 18:00:00 14.1 6 Sudeste 17 Sudeste 0 -- -- 76
2020-03-21 17:00:00 15.1 10 Sudeste 24 Sudeste 0 -- -- 66
2020-03-21 16:00:00 16.3 13 Sudeste 24 Este 0 -- -- 60
2020-03-21 15:00:00 16.1 12 Sudeste 26 Este 0 -- -- 61
2020-03-21 14:00:00 15.5 14 Sudeste 23 Sudeste 0 -- -- 67
2020-03-21 13:00:00 15.3 10 Sudeste 18 Este 0 -- -- 65
2020-03-21 12:00:00 14.4 9 Sur 15 Sur 0 -- -- 72
2020-03-21 11:00:00 13.8 5 Sudoeste 9 Sudoeste 0 -- -- 74
2020-03-21 10:00:00 12 0 Calma 7 Norte 0 -- -- 82
2020-03-21 09:00:00 10.7 4 Noroeste 10 Nordeste 0 -- -- 82
2020-03-21 08:00:00 7.4 0 Calma 17 Nordeste 0 -- -- 87
2020-03-21 07:00:00 6.5 11 Nordeste 19 Nordeste 0 -- -- 85
2020-03-21 06:00:00 6.5 9 Nordeste 14 Nordeste 0 -- -- 86
2020-03-21 05:00:00 6.3 8 Nordeste 13 Nordeste 0 -- -- 85
2020-03-21 04:00:00 5.7 8 Nordeste 13 Nordeste 0 -- -- 84
2020-03-21 03:00:00 6.1 6 Nordeste 16 Nordeste 0 -- -- 81
2020-03-21 02:00:00 6.4 8 Nordeste 18 Nordeste 0 -- -- 82
2020-03-21 01:00:00 6.5 7 Nordeste 13 Nordeste 0 -- -- 83
2020-03-21 00:00:00 6.8 8 Nordeste 12 Nordeste 0 -- -- 86
2020-03-20 23:00:00 7.2 2 Nordeste 12 Nordeste 0 -- -- 86
2020-03-20 22:00:00 7.6 6 Nordeste 9 Nordeste 0 -- -- 84
2020-03-20 21:00:00 8.1 5 Nordeste 11 Nordeste 0 -- -- 85
2020-03-20 20:00:00 9.6 3 Nordeste 6 Nordeste 0 -- -- 80
2020-03-20 19:00:00 12.7 2 Oeste 18 Sudoeste 0 -- -- 68
2020-03-20 18:00:00 14.4 11 Sudoeste 22 Sur 0 -- -- 58
2020-03-20 17:00:00 15.5 15 Sur 25 Sur 0 -- -- 57
2020-03-20 16:00:00 16.7 14 Sur 23 Sur 0 -- -- 57
2020-03-20 15:00:00 17.4 12 Sur 20 Sur 0 -- -- 50
2020-03-20 14:00:00 17.2 7 Sur 18 Sudoeste 0 -- -- 49
2020-03-20 13:00:00 16.2 7 Sur 16 Sudoeste 0 -- -- 54
2020-03-20 12:00:00 15.1 5 Sur 12 Sur 0 -- -- 66
2020-03-20 11:00:00 13.4 5 Oeste 13 Sur 0 -- -- 75
2020-03-20 10:00:00 12 10 Sur 15 Sur 0 -- -- 80
2020-03-20 09:00:00 10 0 Calma 4 Sur 0 -- -- 85
2020-03-20 08:00:00 6.8 2 Nordeste 9 Norte 0 -- -- 92
2020-03-20 07:00:00 5.3 4 Norte 12 Nordeste 0 -- -- 94
2020-03-20 06:00:00 5 5 Nordeste 9 Nordeste 0 -- -- 94
2020-03-20 05:00:00 5.2 2 Norte 10 Nordeste 0 -- -- 93
2020-03-20 04:00:00 5.8 6 Nordeste 17 Nordeste 0 -- -- 92
2020-03-20 03:00:00 5.3 5 Nordeste 9 Nordeste 0 -- -- 90
2020-03-20 02:00:00 5.8 4 Nordeste 13 Nordeste 0 -- -- 87
2020-03-20 01:00:00 5.7 5 Nordeste 13 Nordeste 0 -- -- 84
2020-03-20 00:00:00 6.1 5 Nordeste 9 Nordeste 0 -- -- 82
2020-03-19 23:00:00 6.5 3 Nordeste 12 Nordeste 0 -- -- 81
2020-03-19 22:00:00 7 4 Norte 13 Nordeste 0 -- -- 84
2020-03-19 21:00:00 7.9 5 Nordeste 9 Nordeste 0 -- -- 87
2020-03-19 20:00:00 9.2 4 Nordeste 9 Nordeste 0 -- -- 88
2020-03-19 19:00:00 12.3 0 Calma 12 Sur 0 -- -- 83
2020-03-19 18:00:00 14.1 9 Sur 19 Sur 0 -- -- 74
2020-03-19 17:00:00 15.6 12 Sudoeste 19 Sur 0 -- -- 66
2020-03-19 16:00:00 16.4 11 Sur 21 Sur 0 -- -- 60
2020-03-19 15:00:00 17.4 10 Sur 21 Sur 0 -- -- 67
2020-03-19 14:00:00 17.3 12 Sur 20 Sur 0 -- -- 64
2020-03-19 13:00:00 17.8 10 Sudoeste 17 Sur 0 -- -- 53
2020-03-19 12:00:00 17 6 Sur 14 Sur 0 -- -- 61
2020-03-19 11:00:00 15.3 6 Sudoeste 14 Sur 0 -- -- 65
2020-03-19 10:00:00 13.3 5 Sudoeste 9 Sudoeste 0 -- -- 78
2020-03-19 09:00:00 11.9 3 Sudoeste 9 Nordeste 0 -- -- 79
2020-03-19 08:00:00 8.8 8 Nordeste 12 Nordeste 0 -- -- 81
2020-03-19 07:00:00 6.8 6 Nordeste 12 Nordeste 0 -- -- 87
2020-03-19 06:00:00 6.5 3 Nordeste 9 Nordeste 0 -- -- 89
2020-03-19 05:00:00 6.6 0 Calma 7 Norte 0 -- -- 89
2020-03-19 04:00:00 7.2 3 Norte 12 Norte 0 -- -- 87
2020-03-19 03:00:00 7.4 5 Norte 10 Nordeste 0 -- -- 90
2020-03-19 02:00:00 7.9 3 Nordeste 14 Nordeste 0 -- -- 89
2020-03-19 01:00:00 7.8 6 Nordeste 11 Nordeste 0 -- -- 92
2020-03-19 00:00:00 8.3 6 Nordeste 11 Nordeste 0 -- -- 91
2020-03-18 23:00:00 8.9 5 Nordeste 9 Nordeste 0 -- -- 90
2020-03-18 22:00:00 9.9 3 Nordeste 12 Nordeste 0 -- -- 87
2020-03-18 21:00:00 10.4 8 Nordeste 14 Nordeste 0 -- -- 89
2020-03-18 20:00:00 11.2 4 Nordeste 6 Norte 0 -- -- 89
2020-03-18 19:00:00 13.9 0 Calma 6 Sur 0 -- -- 79
2020-03-18 18:00:00 15.7 3 Sudeste 10 Sudeste 0 -- -- 71
2020-03-18 17:00:00 16.3 6 Sur 15 Sur 0 -- -- 66
2020-03-18 16:00:00 17.3 9 Sudoeste 15 Sur 0 -- -- 64
2020-03-18 15:00:00 17.7 9 Sur 15 Sur 0 -- -- 64
2020-03-18 14:00:00 17.6 7 Sur 13 Sur 0 -- -- 63
2020-03-18 13:00:00 17 7 Sudoeste 13 Sur 0 -- -- 62
2020-03-18 12:00:00 16 8 Sur 12 Sudoeste 0 -- -- 66
2020-03-18 11:00:00 15.2 5 Sudoeste 9 Oeste 0 -- -- 71
2020-03-18 10:00:00 13.5 4 Sudoeste 6 Sudoeste 0 -- -- 76
2020-03-18 09:00:00 11.6 3 Nordeste 11 Norte 0 -- -- 79
2020-03-18 08:00:00 9.6 7 Norte 17 Nordeste 0 -- -- 79
2020-03-18 07:00:00 8.6 6 Nordeste 13 Nordeste 0 -- -- 82
2020-03-18 06:00:00 8.8 6 Nordeste 15 Nordeste 0 -- -- 81
2020-03-18 05:00:00 9.4 9 Nordeste 15 Nordeste 0 -- -- 80
2020-03-18 04:00:00 9.6 4 Nordeste 10 Norte 0 -- -- 80
2020-03-18 03:00:00 9.6 2 Noroeste 15 Nordeste 0 -- -- 81
2020-03-18 02:00:00 9.7 5 Norte 18 Nordeste 0 -- -- 79
2020-03-18 01:00:00 10.2 10 Nordeste 19 Nordeste 0 -- -- 77
2020-03-18 00:00:00 10.2 12 Nordeste 19 Nordeste 0 -- -- 77
2020-03-17 23:00:00 10 7 Norte 13 Nordeste 0 -- -- 81
2020-03-17 22:00:00 10.9 3 Sur 18 Nordeste 0 -- -- 87
2020-03-17 21:00:00 11.7 10 Nordeste 22 Nordeste 0 -- -- 88
2020-03-17 20:00:00 12 12 Nordeste 21 Nordeste 0 -- -- 90
2020-03-17 19:00:00 12.6 13 Nordeste 19 Nordeste 0 -- -- 88
2020-03-17 18:00:00 14.3 3 Sudoeste 8 Sudoeste 0 -- -- 79
2020-03-17 17:00:00 14.9 2 Sudoeste 10 Sur 0 -- -- 73
2020-03-17 16:00:00 15 7 Sur 15 Sur 0 -- -- 75
2020-03-17 15:00:00 15.4 7 Sur 14 Sur 0 -- -- 72
2020-03-17 14:00:00 15.5 3 Sur 11 Este 0 -- -- 67
2020-03-17 13:00:00 15.1 7 Nordeste 15 Nordeste 0 -- -- 73
2020-03-17 12:00:00 14.4 10 Este 17 Nordeste 0 -- -- 77
2020-03-17 11:00:00 14 9 Nordeste 19 Nordeste 0 -- -- 83
2020-03-17 10:00:00 13.4 12 Nordeste 19 Este 0 -- -- 86
2020-03-17 09:00:00 12.9 10 Nordeste 15 Nordeste 0 -- -- 88
2020-03-17 08:00:00 11.9 10 Nordeste 17 Nordeste 0 -- -- 91
2020-03-17 07:00:00 11.4 11 Nordeste 14 Nordeste 0 -- -- 91
2020-03-17 06:00:00 11 10 Nordeste 15 Nordeste 0 -- -- 91
2020-03-17 05:00:00 10.6 7 Nordeste 13 Nordeste 0 -- -- 92
2020-03-17 04:00:00 10.4 8 Nordeste 13 Nordeste 0 -- -- 93
2020-03-17 03:00:00 10.4 7 Nordeste 13 Nordeste 0 -- -- 92
2020-03-17 02:00:00 11 10 Nordeste 14 Nordeste 0 -- -- 91
2020-03-17 01:00:00 10.8 5 Norte 10 Nordeste 0 -- -- 93
2020-03-17 00:00:00 11.2 0 Calma 7 Nordeste 0 -- -- 92
2020-03-16 23:00:00 11.6 8 Nordeste 13 Norte 0 -- -- 90
2020-03-16 22:00:00 11.9 8 Nordeste 20 Nordeste 0 -- -- 88
2020-03-16 21:00:00 11.4 6 Nordeste 17 Nordeste 0.2 -- -- 90
2020-03-16 20:00:00 11.5 11 Nordeste 26 Este 0.2 -- -- 88
2020-03-16 19:00:00 11.5 13 Este 29 Nordeste 0.6 -- -- 88
2020-03-16 18:00:00 11.4 11 Este 27 Este 1.4 -- -- 89
2020-03-16 17:00:00 11.4 4 Nordeste 24 Este 4.4 -- -- 90
2020-03-16 16:00:00 11.7 12 Sudeste 21 Este 4.6 -- -- 90
2020-03-16 15:00:00 12 7 Sudeste 25 Sudeste 2.4 -- -- 89
2020-03-16 14:00:00 12.7 13 Sudeste 29 Sudeste 1.6 -- -- 87
2020-03-16 13:00:00 14 11 Sudeste 28 Sur 0 -- -- 79
2020-03-16 12:00:00 14 16 Sur 34 Sudeste 0 -- -- 80
2020-03-16 11:00:00 13.7 13 Sur 22 Sudeste 0 -- -- 84
2020-03-16 10:00:00 13.1 0 Calma 5 Sudeste 0 -- -- 81
2020-03-16 09:00:00 12.4 0 Calma 6 Nordeste 0 -- -- 85
2020-03-16 08:00:00 11.7 4 Nordeste 8 Nordeste 0 -- -- 88
2020-03-16 07:00:00 11.1 5 Nordeste 8 Este 0 -- -- 91
2020-03-16 06:00:00 11.1 4 Sudeste 8 Sudeste 0 -- -- 92
2020-03-16 05:00:00 11.6 2 Sudeste 7 Sudeste 0 -- -- 90
2020-03-16 04:00:00 12 4 Sudeste 16 Sur 0 -- -- 88
2020-03-16 03:00:00 12.2 9 Sur 21 Sudeste 0 -- -- 84
2020-03-16 02:00:00 12.1 8 Sudeste 21 Sur 0 -- -- 80
2020-03-16 01:00:00 12.3 13 Sur 30 Sudeste 0 -- -- 80
2020-03-16 00:00:00 12.3 14 Sur 29 Sur 0 -- -- 86
2020-03-15 23:00:00 12.4 14 Sur 25 Sur 0 -- -- 89
2020-03-15 22:00:00 12.6 15 Sur 26 Sudeste 0 -- -- 87
2020-03-15 21:00:00 13 12 Sur 28 Sur 0 -- -- 81
2020-03-15 20:00:00 12.9 15 Sur 28 Sur 0 -- -- 86
2020-03-15 19:00:00 13 19 Sur 35 Sur 0 -- -- 87
2020-03-15 18:00:00 13.3 18 Sur 39 Sur 0 -- -- 87
2020-03-15 17:00:00 13.6 21 Sur 37 Sur 0 -- -- 86
2020-03-15 16:00:00 13.8 24 Sur 40 Sudeste 0 -- -- 83
2020-03-15 15:00:00 14 24 Sur 44 Sur 0 -- -- 80
2020-03-15 14:00:00 14.6 25 Sudeste 41 Sudeste 0 -- -- 76
2020-03-15 13:00:00 13.8 24 Sur 42 Sur 0 -- -- 79
2020-03-15 12:00:00 13.7 26 Sur 41 Sur 0 -- -- 77
2020-03-15 11:00:00 13.7 8 Sur 17 Sur 0 -- -- 77
2020-03-15 10:00:00 12.6 4 Sudoeste 8 Sudoeste 0 -- -- 77
2020-03-15 09:00:00 11.4 0 Calma 4 Este 0 -- -- 74
2020-03-15 08:00:00 10.3 0 Calma 8 Nordeste 0 -- -- 84
2020-03-15 07:00:00 9.7 6 Nordeste 8 Nordeste 0 -- -- 83
2020-03-15 06:00:00 9 0 Calma 5 Sudoeste 0 -- -- 85
2020-03-15 05:00:00 8.9 0 Calma 12 Nordeste 0 -- -- 85
2020-03-15 04:00:00 9.1 10 Nordeste 15 Nordeste 0 -- -- 77
2020-03-15 03:00:00 9 6 Nordeste 18 Nordeste 0 -- -- 74
2020-03-15 02:00:00 8.2 13 Nordeste 18 Nordeste 0 -- -- 73
2020-03-15 01:00:00 7.1 3 Nordeste 15 Nordeste 0 -- -- 75
2020-03-15 00:00:00 7.4 4 Nordeste 13 Nordeste 0 -- -- 85
2020-03-14 23:00:00 8.7 4 Nordeste 12 Nordeste 0 -- -- 76
2020-03-14 22:00:00 9.3 3 Norte 10 Norte 0 -- -- 74
2020-03-14 21:00:00 11.4 7 Este 11 Este 0 -- -- 72
2020-03-14 20:00:00 13.4 6 Sudoeste 9 Sudoeste 0 -- -- 78
2020-03-14 19:00:00 14.3 6 Sudeste 14 Sudeste 0 -- -- 74
2020-03-14 18:00:00 15.5 10 Sudeste 23 Sur 0 -- -- 70
2020-03-14 17:00:00 16.6 16 Sur 25 Sur 0 -- -- 63
2020-03-14 16:00:00 18 15 Sur 25 Sur 0 -- -- 53
2020-03-14 15:00:00 19 12 Sur 24 Nordeste 0 -- -- 50
2020-03-14 14:00:00 18.9 11 Este 26 Sur 0 -- -- 44
2020-03-14 13:00:00 18.5 7 Nordeste 18 Sudeste 0 -- -- 47
2020-03-14 12:00:00 17.5 7 Oeste 12 Noroeste 0 -- -- 49
2020-03-14 11:00:00 15.4 3 Sudeste 9 Sur 0 -- -- 54
2020-03-14 10:00:00 14.7 5 Oeste 13 Sudoeste 0 -- -- 57
2020-03-14 09:00:00 13.4 2 Oeste 10 Nordeste 0 -- -- 58
2020-03-14 08:00:00 10.7 5 Nordeste 23 Nordeste 0 -- -- 68
2020-03-14 07:00:00 7.9 3 Norte 10 Norte 0 -- -- 78
2020-03-14 06:00:00 9.2 8 Nordeste 13 Nordeste 0 -- -- 72
2020-03-14 05:00:00 8.9 10 Nordeste 21 Nordeste 0 -- -- 72
2020-03-14 04:00:00 7.7 2 Nordeste 8 Nordeste 0 -- -- 77
2020-03-14 03:00:00 9 4 Norte 10 Nordeste 0 -- -- 72
2020-03-14 02:00:00 10 3 Nordeste 20 Noroeste 0 -- -- 68
2020-03-14 01:00:00 9.8 3 Nordeste 12 Norte 0 -- -- 70
2020-03-14 00:00:00 12.6 4 Norte 13 Sudeste 0 -- -- 60
2020-03-13 23:00:00 14.4 3 Sudeste 13 Sudeste 0 -- -- 54
2020-03-13 22:00:00 15.2 7 Sudeste 30 Norte 0 -- -- 48
2020-03-13 21:00:00 15.7 0 Calma 21 Sudeste 0 -- -- 46
2020-03-13 20:00:00 15.7 6 Sudeste 13 Sudeste 0 -- -- 48
2020-03-13 19:00:00 16.3 5 Sudeste 15 Sudeste 0 -- -- 46
2020-03-13 18:00:00 16.8 6 Sudoeste 32 Norte 0 -- -- 49
2020-03-13 17:00:00 17.8 12 Norte 29 Norte 0 -- -- 46
2020-03-13 16:00:00 17.8 13 Nordeste 23 Nordeste 0 -- -- 49
2020-03-13 15:00:00 18.3 13 Norte 23 Norte 0 -- -- 50
2020-03-13 14:00:00 20.6 10 Oeste 21 Oeste 0 -- -- 45
2020-03-13 13:00:00 18.7 7 Sudeste 16 Sudeste 0 -- -- 48
2020-03-13 12:00:00 17.8 10 Noroeste 17 Noroeste 0 -- -- 49
2020-03-13 11:00:00 17.1 10 Sur 17 Sur 0 -- -- 54
2020-03-13 10:00:00 15.1 7 Sur 13 Sur 0 -- -- 62
2020-03-13 09:00:00 13.6 4 Sudeste 9 Sudeste 0 -- -- 75
2020-03-13 08:00:00 12.5 5 Sudoeste 15 Este 0 -- -- 79
2020-03-13 07:00:00 13.2 3 Sudoeste 24 Noroeste 0 -- -- 74
2020-03-13 06:00:00 12.1 4 Nordeste 15 Noroeste 0 -- -- 81
2020-03-13 05:00:00 11.1 2 Norte 10 Nordeste 0 -- -- 91
2020-03-13 04:00:00 10.8 2 Sur 10 Este 0 -- -- 95
2020-03-13 03:00:00 10 5 Nordeste 6 Este 0 -- -- 95
2020-03-13 02:00:00 10.3 4 Nordeste 9 Este 0 -- -- 96
2020-03-13 01:00:00 10.2 3 Este 9 Sudeste 0 -- -- 96
2020-03-13 00:00:00 10.6 0 Calma 5 Este 0 -- -- 95
2020-03-12 23:00:00 11.1 3 Sudoeste 5 Este 0 -- -- 94
2020-03-12 22:00:00 11.4 3 Este 8 Sudoeste 0 -- -- 93
2020-03-12 21:00:00 12.2 3 Sudoeste 7 Sudoeste 0 -- -- 86
2020-03-12 20:00:00 13.7 2 Sudeste 8 Sur 0 -- -- 78
2020-03-12 19:00:00 16.1 0 Calma 6 Sudoeste 0 -- -- 77
2020-03-12 18:00:00 17.8 4 Sudoeste 9 Sudoeste 0 -- -- 71
2020-03-12 17:00:00 19.2 6 Sur 14 Sudoeste 0 -- -- 56
2020-03-12 16:00:00 19.6 8 Sudoeste 16 Sur 0 -- -- 57
2020-03-12 15:00:00 20.3 10 Sudoeste 18 Sur 0 -- -- 57
2020-03-12 14:00:00 20.2 12 Sur 21 Sudoeste 0 -- -- 53
2020-03-12 13:00:00 20.5 12 Sudoeste 19 Sudoeste 0 -- -- 54
2020-03-12 12:00:00 20.5 9 Sudoeste 19 Sudoeste 0 -- -- 50
2020-03-12 11:00:00 20.1 7 Sudoeste 13 Sudoeste 0 -- -- 56
2020-03-12 10:00:00 17.3 5 Sur 8 Sur 0 -- -- 64
2020-03-12 09:00:00 14.3 3 Noroeste 5 Norte 0 -- -- 71
2020-03-12 08:00:00 11.3 0 Calma 14 Nordeste 0 -- -- 77
2020-03-12 07:00:00 11.3 12 Nordeste 18 Nordeste 0 -- -- 75
2020-03-12 06:00:00 11.3 8 Norte 15 Nordeste 0 -- -- 76
2020-03-12 05:00:00 10.3 5 Nordeste 8 Nordeste 0 -- -- 82
2020-03-12 04:00:00 11.5 9 Nordeste 16 Norte 0 -- -- 77
2020-03-12 03:00:00 10.4 0 Calma 9 Nordeste 0 -- -- 81
2020-03-12 02:00:00 10.3 3 Nordeste 14 Nordeste 0 -- -- 82
2020-03-12 01:00:00 11 6 Norte 10 Norte 0 -- -- 79
2020-03-12 00:00:00 10.8 2 Norte 11 Nordeste 0 -- -- 81
2020-03-11 23:00:00 10.9 4 Nordeste 10 Nordeste 0 -- -- 80
2020-03-11 22:00:00 11.1 3 Nordeste 9 Nordeste 0 -- -- 78
2020-03-11 21:00:00 11.8 4 Nordeste 13 Norte 0 -- -- 73
2020-03-11 20:00:00 12.7 7 Nordeste 9 Norte 0 -- -- 69
2020-03-11 19:00:00 15 2 Norte 10 Sudoeste 0 -- -- 61
2020-03-11 18:00:00 18.6 6 Sudoeste 15 Sur 0 -- -- 46
2020-03-11 17:00:00 19.9 11 Sur 15 Sur 0 -- -- 48
2020-03-11 16:00:00 21 12 Sur 20 Sudeste 0 -- -- 42
2020-03-11 15:00:00 21.7 8 Sudoeste 17 Sudoeste 0 -- -- 40
2020-03-11 14:00:00 21.2 9 Sur 19 Sudoeste 0 -- -- 42
2020-03-11 13:00:00 20.2 8 Sudoeste 14 Sudoeste 0 -- -- 48
2020-03-11 12:00:00 18.8 5 Oeste 13 Sudoeste 0 -- -- 56
2020-03-11 11:00:00 17 8 Sudoeste 12 Sudoeste 0 -- -- 59
2020-03-11 10:00:00 15.3 4 Sudoeste 8 Sudoeste 0 -- -- 64
2020-03-11 09:00:00 13 4 Este 15 Nordeste 0 -- -- 73
2020-03-11 08:00:00 8.2 2 Norte 12 Nordeste 0 -- -- 90
2020-03-11 07:00:00 6.6 6 Norte 10 Nordeste 0 -- -- 90
2020-03-11 06:00:00 7.5 5 Nordeste 13 Nordeste 0 -- -- 89
2020-03-11 05:00:00 7.7 4 Norte 17 Nordeste 0 -- -- 88
2020-03-11 04:00:00 7.6 4 Norte 9 Norte 0 -- -- 90
2020-03-11 03:00:00 7.5 3 Norte 14 Nordeste 0 -- -- 87
2020-03-11 02:00:00 7.7 4 Nordeste 9 Sudeste 0 -- -- 88
2020-03-11 01:00:00 8.3 6 Nordeste 16 Este 0 -- -- 86
2020-03-11 00:00:00 8.2 11 Norte 15 Nordeste 0 -- -- 91
2020-03-10 23:00:00 7.9 5 Norte 9 Norte 0 -- -- 91
2020-03-10 22:00:00 8.2 3 Nordeste 5 Norte 0 -- -- 89
2020-03-10 21:00:00 9.4 5 Nordeste 11 Norte 0 -- -- 85
2020-03-10 20:00:00 10 4 Nordeste 13 Nordeste 0 -- -- 84
2020-03-10 19:00:00 11.6 5 Norte 6 Norte 0 -- -- 79
2020-03-10 18:00:00 13.5 4 Sudoeste 10 Sur 0 -- -- 70
2020-03-10 17:00:00 14.6 6 Sur 15 Sur 0 -- -- 63
2020-03-10 16:00:00 15.9 8 Sur 17 Sur 0 -- -- 57
2020-03-10 15:00:00 16.1 10 Sudoeste 21 Sur 0 -- -- 53
2020-03-10 14:00:00 15.7 7 Sur 18 Sur 0 -- -- 53
2020-03-10 13:00:00 14.3 10 Sur 15 Sur 0 -- -- 57
2020-03-10 12:00:00 14.1 9 Sur 18 Sur 0 -- -- 59
2020-03-10 11:00:00 13.8 8 Sur 15 Sur 0 -- -- 57
2020-03-10 10:00:00 12.1 5 Sur 13 Sudeste 0 -- -- 62
2020-03-10 09:00:00 11.4 5 Sur 10 Nordeste 0 -- -- 62
2020-03-10 08:00:00 10.6 6 Nordeste 10 Oeste 0 -- -- 64
2020-03-10 07:00:00 10.1 4 Noroeste 13 Norte 0 -- -- 65
2020-03-10 06:00:00 10.6 4 Nordeste 19 Oeste 0 -- -- 60
2020-03-10 05:00:00 10.9 13 Sur 24 Sudeste 0 -- -- 59
2020-03-10 04:00:00 10.9 5 Oeste 26 Sur 0 -- -- 56
2020-03-10 03:00:00 11.4 11 Sur 28 Sudoeste 0 -- -- 51
2020-03-10 02:00:00 11.2 9 Sudoeste 49 Noroeste 0 -- -- 53
2020-03-10 01:00:00 11.4 11 Norte 43 Noroeste 0 -- -- 52
2020-03-10 00:00:00 11 10 Sur 60 Noroeste 0 -- -- 57
2020-03-09 23:00:00 11 25 Norte 66 Norte 0 -- -- 54
2020-03-09 22:00:00 11.4 31 Norte 74 Norte 0 -- -- 53
2020-03-09 21:00:00 11.4 33 Norte 90 Norte 0 -- -- 54
2020-03-09 20:00:00 11.4 38 Norte 77 Norte 0 -- -- 57
2020-03-09 19:00:00 11.7 43 Norte 87 Norte 0 -- -- 52
2020-03-09 18:00:00 12.5 36 Norte 71 Norte 0 -- -- 52
2020-03-09 17:00:00 13.3 32 Norte 73 Norte 0 -- -- 51
2020-03-09 16:00:00 13.6 37 Norte 82 Norte 0 -- -- 50
2020-03-09 15:00:00 14.7 36 Norte 86 Norte 0 -- -- 43
2020-03-09 14:00:00 14.3 33 Norte 71 Norte 0 -- -- 46
2020-03-09 13:00:00 13.5 36 Norte 67 Nordeste 0 -- -- 51
2020-03-09 12:00:00 12.8 38 Norte 67 Norte 0 -- -- 52
2020-03-09 11:00:00 13.9 40 Norte 71 Norte 0 -- -- 50
2020-03-09 10:00:00 13.5 32 Norte 66 Norte 0 -- -- 48
2020-03-09 09:00:00 11.9 22 Norte 62 Norte 0 -- -- 47
2020-03-09 08:00:00 11.3 28 Norte 61 Norte 0 -- -- 54
2020-03-09 07:00:00 11.2 24 Norte 74 Norte 0 -- -- 53
2020-03-09 06:00:00 11.5 31 Norte 60 Nordeste 0 -- -- 54
2020-03-09 05:00:00 12.4 24 Norte 55 Nordeste 0 -- -- 52
2020-03-09 04:00:00 12.8 26 Norte 45 Norte 0 -- -- 55
2020-03-09 03:00:00 13.9 7 Nordeste 37 Noroeste 0 -- -- 54
2020-03-09 02:00:00 13.9 21 Norte 50 Norte 0 -- -- 52
2020-03-09 01:00:00 12.7 19 Noroeste 35 Noroeste 0 -- -- 61
2020-03-09 00:00:00 8.7 3 Sudeste 9 Nordeste 0 -- -- 89
2020-03-08 23:00:00 9.5 4 Sur 13 Nordeste 0 -- -- 86
2020-03-08 22:00:00 10.3 8 Nordeste 13 Nordeste 0 -- -- 83
2020-03-08 21:00:00 10.7 3 Nordeste 11 Nordeste 0 -- -- 84
2020-03-08 20:00:00 11.2 4 Nordeste 10 Nordeste 0 -- -- 83
2020-03-08 19:00:00 12.3 5 Nordeste 8 Nordeste 0 -- -- 79
2020-03-08 18:00:00 13.4 3 Sudeste 13 Sudeste 0 -- -- 74
2020-03-08 17:00:00 14.3 10 Sur 18 Sur 0 -- -- 71
2020-03-08 16:00:00 15.3 9 Sur 18 Sudoeste 0 -- -- 58
2020-03-08 15:00:00 16.2 4 Sur 16 Sur 0 -- -- 49
2020-03-08 14:00:00 16.2 9 Sur 18 Sur 0 -- -- 48
2020-03-08 13:00:00 15.7 8 Sudoeste 18 Sudoeste 0 -- -- 50
2020-03-08 12:00:00 14.9 6 Sur 15 Sudoeste 0 -- -- 52
2020-03-08 11:00:00 13.7 6 Sudoeste 13 Sudoeste 0 -- -- 57
2020-03-08 10:00:00 12.2 6 Sudoeste 10 Sudoeste 0 -- -- 60
2020-03-08 09:00:00 10.2 3 Nordeste 11 Nordeste 0 -- -- 67
2020-03-08 08:00:00 5.8 8 Nordeste 15 Nordeste 0 -- -- 83
2020-03-08 07:00:00 4.2 3 Norte 9 Norte 0 -- -- 87
2020-03-08 06:00:00 4.4 6 Norte 9 Noroeste 0 -- -- 87
2020-03-08 05:00:00 6.1 2 Sudeste 9 Este 0 -- -- 80
2020-03-08 04:00:00 8 2 Nordeste 13 Sur 0 -- -- 73
2020-03-08 03:00:00 10.2 11 Sudoeste 29 Noroeste 0 -- -- 63
2020-03-08 02:00:00 11.4 12 Norte 41 Norte 0 -- -- 59
2020-03-08 01:00:00 11.5 19 Norte 48 Norte 0 -- -- 58
2020-03-08 00:00:00 11.6 19 Norte 50 Norte 0 -- -- 57
2020-03-07 23:00:00 11.5 22 Norte 45 Noroeste 0 -- -- 57
2020-03-07 22:00:00 11.7 19 Norte 43 Norte 0 -- -- 56
2020-03-07 21:00:00 12 16 Oeste 39 Oeste 0 -- -- 53
2020-03-07 20:00:00 11.9 10 Norte 38 Noroeste 0 -- -- 51
2020-03-07 19:00:00 12.2 10 Norte 59 Norte 0 -- -- 48
2020-03-07 18:00:00 13.4 21 Norte 59 Noroeste 0 -- -- 43
2020-03-07 17:00:00 13.8 13 Norte 53 Noroeste 0 -- -- 42
2020-03-07 16:00:00 13.8 23 Norte 55 Norte 0 -- -- 44
2020-03-07 15:00:00 13.4 32 Norte 71 Norte 0 -- -- 44
2020-03-07 14:00:00 13.1 34 Norte 84 Norte 0 -- -- 43
2020-03-07 13:00:00 12.9 41 Norte 82 Norte 0 -- -- 42
2020-03-07 12:00:00 11.6 44 Norte 89 Norte 0 -- -- 46
2020-03-07 11:00:00 11.1 41 Norte 77 Norte 0 -- -- 45
2020-03-07 10:00:00 9.8 43 Norte 85 Norte 0 -- -- 51
2020-03-07 09:00:00 9 41 Norte 96 Norte 0 -- -- 55
2020-03-07 08:00:00 8.4 52 Norte 91 Norte 0 -- -- 56
2020-03-07 07:00:00 8.1 60 Norte 111 Norte 0 -- -- 61
2020-03-07 06:00:00 8.7 55 Norte 98 Norte 0 -- -- 58
2020-03-07 05:00:00 8.9 49 Norte 108 Noroeste 0 -- -- 56
2020-03-07 04:00:00 9.1 33 Norte 88 Norte 0 -- -- 52
2020-03-07 03:00:00 8.7 21 Noroeste 63 Noroeste 0 -- -- 58
2020-03-07 02:00:00 8.6 21 Noroeste 67 Norte 0 -- -- 61
2020-03-07 01:00:00 8.3 23 Norte 83 Norte 0 -- -- 61
2020-03-07 00:00:00 8.6 51 Norte 95 Norte 0 -- -- 59
2020-03-06 23:00:00 9.1 48 Norte 102 Noroeste 0 -- -- 53
2020-03-06 22:00:00 9.5 40 Norte 85 Norte 0 -- -- 51
2020-03-06 21:00:00 9.8 24 Noroeste 72 Noroeste 0 -- -- 45
2020-03-06 20:00:00 9.9 26 Norte 53 Noroeste 0 -- -- 44
2020-03-06 19:00:00 10.4 26 Norte -- -- -- -- -- 41
2020-03-06 18:00:00 -- -- -- -- -- -- -- -- --
2020-03-06 17:00:00 -- -- -- -- -- -- -- -- --
2020-03-06 16:00:00 -- -- -- -- -- -- -- -- --
2020-03-06 15:00:00 -- -- -- -- -- -- -- -- --
2020-03-06 14:00:00 -- -- -- -- -- -- -- -- --
2020-03-06 13:00:00 -- -- -- -- -- -- -- -- --
2020-03-06 12:00:00 -- -- -- -- -- -- -- -- --
2020-03-06 11:00:00 12.2 0 Calma 7 Sudeste 0 -- -- 58
2020-03-06 10:00:00 10.4 4 Sudoeste 7 Sudoeste 0 -- -- 61
2020-03-06 09:00:00 10.5 4 Sudoeste 13 Nordeste 0 -- -- 62
2020-03-06 08:00:00 9 7 Nordeste 20 Noroeste 0 -- -- 59
2020-03-06 07:00:00 7.5 4 Nordeste 19 Oeste 0 -- -- 61
2020-03-06 06:00:00 7.5 7 Norte 12 Norte 0 -- -- 59
2020-03-06 05:00:00 10.1 4 Norte 41 Noroeste 0 -- -- 48
2020-03-06 04:00:00 11 20 Norte 42 Norte 0 -- -- 44
2020-03-06 03:00:00 9 5 Sudeste 35 Nordeste 0 -- -- 53
2020-03-06 02:00:00 11.5 22 Nordeste 40 Norte 0 -- -- 37
2020-03-06 01:00:00 12.1 6 Norte 31 Norte 0 -- -- 42
2020-03-06 00:00:00 12.6 17 Norte 41 Norte 0 -- -- 41
2020-03-05 23:00:00 11.3 8 Norte 48 Norte 0 -- -- 47
2020-03-05 22:00:00 13.3 27 Norte 60 Norte 0 -- -- 41
2020-03-05 21:00:00 8.2 6 Este 21 Nordeste 0 -- -- 86
2020-03-05 20:00:00 9.7 4 Nordeste 21 Sudoeste 0 -- -- 81
2020-03-05 19:00:00 10.2 5 Este 53 Norte 1.4 -- -- 85
2020-03-05 18:00:00 14.5 26 Norte 62 Norte 0 -- -- 50
2020-03-05 17:00:00 11.6 30 Norte 69 Norte 2.2 -- -- 71
2020-03-05 16:00:00 12.2 34 Norte 60 Norte 1 -- -- 72
2020-03-05 15:00:00 16.2 16 Norte 44 Nordeste 0 -- -- 59
2020-03-05 14:00:00 20.5 9 Oeste 31 Nordeste 0 -- -- 58
2020-03-05 13:00:00 17.9 2 Sudoeste 8 Sudoeste 0 -- -- 63
2020-03-05 12:00:00 14.8 4 Nordeste 10 Sur 0 -- -- 73
2020-03-05 11:00:00 13.5 0 Calma 9 Este 0 -- -- 78
2020-03-05 10:00:00 11.8 0 Calma 7 Sudeste 0 -- -- 85
2020-03-05 09:00:00 10 4 Este 8 Este 0 -- -- 95
2020-03-05 08:00:00 8.6 3 Nordeste 6 Noroeste 0 -- -- 95
2020-03-05 07:00:00 8.5 0 Calma 6 Norte 0 -- -- 94
2020-03-05 06:00:00 8.6 2 Oeste 13 Nordeste 0 -- -- 93
2020-03-05 05:00:00 8.4 0 Calma 12 Nordeste 0 -- -- 94
2020-03-05 04:00:00 8.5 7 Nordeste 12 Nordeste 0 -- -- 95
2020-03-05 03:00:00 8.4 5 Nordeste 8 Norte 0 -- -- 94
2020-03-05 02:00:00 8.8 3 Norte 4 Nordeste 0 -- -- 93
2020-03-05 01:00:00 9.5 3 Sur 10 Nordeste 0 -- -- 91
2020-03-05 00:00:00 10 2 Norte 9 Nordeste 0 -- -- 91